Time;durP1;ratioP1;P1;durP2;ratioP2;P2;SDS_P1;SDS_P2;PMS_P1;PMS_P2;Temp;Humidity;BMP_temperature;BMP_pressure;BME280_temperature;BME280_humidity;BME280_pressure;Samples;Min_cycle;Max_cycle;Signal;HPM_P1;HPM_P2
2022/11/21 00:00:37;;;;;;;9.60;8.50;;;;;;;12.21;100.00;100346.75;2040383;29;20444;-59
2022/11/21 00:01:38;;;;;;;10.37;8.27;;;;;;;12.21;100.00;100352.31;2039922;29;20210;-59
2022/11/21 00:02:38;;;;;;;8.60;7.70;;;;;;;12.22;100.00;100346.31;2040192;29;20189;-59
2022/11/21 00:03:39;;;;;;;9.03;7.67;;;;;;;12.27;100.00;100351.31;2039720;29;20267;-60
2022/11/21 00:04:39;;;;;;;7.50;6.67;;;;;;;12.13;100.00;100339.88;2040547;29;20645;-60
2022/11/21 00:05:42;;;;;;;9.07;6.50;;;;;;;12.23;100.00;100356.19;2039843;29;20203;-60
2022/11/21 00:06:42;;;;;;;6.93;6.23;;;;;;;12.19;100.00;100352.00;2040856;29;20199;-59
2022/11/21 00:07:44;;;;;;;6.50;5.80;;;;;;;12.11;100.00;100357.03;2040347;29;20479;-59
2022/11/21 00:08:45;;;;;;;7.37;6.13;;;;;;;12.00;100.00;100344.72;2037859;29;20192;-59
2022/11/21 00:09:46;;;;;;;7.97;7.00;;;;;;;11.66;100.00;100289.16;2040155;29;20944;-59
2022/11/21 00:10:47;;;;;;;8.33;6.50;;;;;;;11.97;100.00;100356.72;2040130;29;20206;-58
2022/11/21 00:11:50;;;;;;;7.57;6.63;;;;;;;11.94;100.00;100360.41;2039996;29;20640;-59
2022/11/21 00:12:56;;;;;;;8.10;7.30;;;;;;;11.83;100.00;100371.84;2039877;29;20526;-59
2022/11/21 00:13:57;;;;;;;8.77;7.70;;;;;;;11.29;100.00;100289.97;2039931;29;21040;-59
2022/11/21 00:14:57;;;;;;;8.37;7.50;;;;;;;11.39;100.00;100303.50;2040129;29;20839;-60
2022/11/21 00:16:11;;;;;;;9.70;8.67;;;;;;;11.88;100.00;100382.38;2039840;29;20404;-59
2022/11/21 00:17:11;;;;;;;9.60;7.67;;;;;;;11.93;100.00;100381.06;2040114;29;20254;-59
2022/11/21 00:18:13;;;;;;;7.97;6.80;;;;;;;11.95;100.00;100382.13;2040037;29;20452;-60
2022/11/21 00:19:13;;;;;;;7.93;6.87;;;;;;;11.55;100.00;100320.00;2039588;29;20196;-61
2022/11/21 00:20:14;;;;;;;7.87;7.03;;;;;;;12.04;100.00;100387.03;2040007;29;20432;-59
2022/11/21 00:21:17;;;;;;;7.60;6.80;;;;;;;12.12;100.00;100382.78;2040000;29;20594;-59
2022/11/21 00:22:17;;;;;;;7.90;6.23;;;;;;;11.79;100.00;100326.00;2040058;29;20204;-59
2022/11/21 00:23:18;;;;;;;7.80;6.00;;;;;;;12.08;100.00;100382.91;2039077;29;21412;-60
2022/11/21 00:24:18;;;;;;;8.17;6.70;;;;;;;10.87;100.00;100195.03;2040066;29;20196;-60
2022/11/21 00:25:18;;;;;;;7.63;6.33;;;;;;;11.98;100.00;100384.03;2039754;29;20279;-60
2022/11/21 00:26:19;;;;;;;10.07;6.60;;;;;;;11.95;100.00;100382.13;2040048;29;20256;-59
2022/11/21 00:27:19;;;;;;;7.97;6.50;;;;;;;11.96;100.00;100380.16;2039748;29;20197;-59
2022/11/21 00:28:20;;;;;;;8.97;6.00;;;;;;;11.98;100.00;100383.25;2040050;29;20255;-60
2022/11/21 00:29:20;;;;;;;6.87;5.93;;;;;;;11.95;100.00;100376.59;2039688;29;20694;-60
2022/11/21 00:30:20;;;;;;;6.40;5.50;;;;;;;11.78;100.00;100363.31;2040058;29;20204;-60
2022/11/21 00:31:22;;;;;;;6.17;5.57;;;;;;;12.03;100.00;100377.91;2039937;29;20275;-59
2022/11/21 00:32:22;;;;;;;6.47;4.87;;;;;;;12.04;100.00;100371.13;2035577;29;20187;-59
2022/11/21 00:33:23;;;;;;;5.20;4.23;;;;;;;11.98;100.00;100361.81;2040145;29;20446;-60
2022/11/21 00:34:23;;;;;;;7.30;5.33;;;;;;;12.01;100.00;100366.50;2040350;29;20487;-59
2022/11/21 00:35:24;;;;;;;6.17;3.87;;;;;;;11.78;100.00;100344.66;2039492;29;20224;-59
2022/11/21 00:36:24;;;;;;;4.90;4.10;;;;;;;11.86;100.00;100367.41;2039982;29;20666;-59
2022/11/21 00:37:25;;;;;;;5.90;4.40;;;;;;;11.75;100.00;100364.19;2039774;29;20287;-59
2022/11/21 00:38:26;;;;;;;5.03;4.50;;;;;;;11.22;100.00;100290.19;2039784;29;20267;-59
2022/11/21 00:39:27;;;;;;;5.37;4.40;;;;;;;11.54;100.00;100362.84;2039479;29;20192;-59
2022/11/21 00:40:27;;;;;;;4.50;4.10;;;;;;;11.42;100.00;100355.31;2039821;29;20940;-59
2022/11/21 00:41:28;;;;;;;4.70;4.20;;;;;;;11.46;100.00;100353.19;2040090;29;20812;-60
2022/11/21 00:42:28;;;;;;;6.37;4.90;;;;;;;11.26;100.00;100324.13;2040047;29;20285;-59
2022/11/21 00:43:28;;;;;;;5.03;4.60;;;;;;;11.46;100.00;100347.66;2039551;29;20212;-60
2022/11/21 00:44:29;;;;;;;5.60;4.83;;;;;;;11.43;100.00;100359.63;2039849;29;20200;-59
2022/11/21 00:45:29;;;;;;;6.77;4.77;;;;;;;11.24;100.00;100326.56;2039559;29;20185;-59
2022/11/21 00:46:30;;;;;;;5.03;4.53;;;;;;;11.37;100.00;100355.09;2039839;29;20203;-60
2022/11/21 00:47:30;;;;;;;5.07;4.57;;;;;;;11.44;100.00;100360.41;2039538;29;20713;-60
2022/11/21 00:48:31;;;;;;;5.00;4.50;;;;;;;11.49;100.00;100368.19;2039582;29;20593;-60
2022/11/21 00:49:32;;;;;;;6.00;4.30;;;;;;;11.58;100.00;100371.84;2039475;29;20188;-60
2022/11/21 00:50:32;;;;;;;4.13;3.73;;;;;;;11.64;100.00;100366.53;2040026;29;21005;-60
2022/11/21 00:51:33;;;;;;;4.47;3.53;;;;;;;11.65;100.00;100371.66;2039598;29;20192;-60
2022/11/21 00:52:33;;;;;;;4.50;3.77;;;;;;;11.66;100.00;100369.63;2039956;29;20196;-60
2022/11/21 00:53:34;;;;;;;4.00;3.60;;;;;;;11.66;100.00;100350.22;2038900;29;20223;-60
2022/11/21 00:54:34;;;;;;;5.57;3.70;;;;;;;11.64;100.00;100358.22;2039322;29;20196;-60
2022/11/21 00:55:36;;;;;;;7.00;3.40;;;;;;;11.62;100.00;100350.34;2039294;29;20195;-60
2022/11/21 00:56:36;;;;;;;3.70;3.33;;;;;;;11.60;100.00;100338.91;2039866;29;20275;-60
2022/11/21 00:57:37;;;;;;;3.77;3.17;;;;;;;11.57;100.00;100345.31;2039844;29;20424;-60
2022/11/21 00:58:37;;;;;;;3.07;2.70;;;;;;;11.42;100.00;100324.03;2039944;29;20199;-59
2022/11/21 00:59:38;;;;;;;4.57;3.07;;;;;;;11.40;100.00;100341.13;2039302;29;20558;-59
2022/11/21 01:00:38;;;;;;;3.90;2.80;;;;;;;11.32;100.00;100325.91;2039834;29;20208;-59
2022/11/21 01:01:38;;;;;;;3.93;3.17;;;;;;;11.29;100.00;100321.25;2039443;29;20238;-60
2022/11/21 01:02:39;;;;;;;3.83;3.17;;;;;;;10.86;100.00;100256.47;2039722;29;20196;-59
2022/11/21 01:03:40;;;;;;;3.57;3.10;;;;;;;11.32;100.00;100339.00;2039141;29;20212;-59
2022/11/21 01:04:40;;;;;;;5.07;3.00;;;;;;;11.36;100.00;100334.09;2039839;29;20578;-60
2022/11/21 01:05:41;;;;;;;4.53;3.10;;;;;;;11.41;100.00;100336.31;2039434;29;20515;-61
2022/11/21 01:06:41;;;;;;;4.07;3.13;;;;;;;11.42;100.00;100335.13;2039932;29;20200;-59
2022/11/21 01:07:42;;;;;;;4.53;3.00;;;;;;;11.04;100.00;100279.66;2039492;29;20304;-60
2022/11/21 01:08:44;;;;;;;4.30;3.30;;;;;;;10.77;100.00;100243.25;2039275;29;20661;-60
2022/11/21 01:09:44;;;;;;;3.07;2.60;;;;;;;11.41;100.00;100325.22;2039587;29;20258;-60
2022/11/21 01:10:44;;;;;;;3.90;3.10;;;;;;;11.38;100.00;100328.91;2039754;29;20497;-59
2022/11/21 01:11:45;;;;;;;7.53;3.77;;;;;;;11.30;100.00;100294.28;2039637;29;20191;-60
2022/11/21 01:12:45;;;;;;;4.30;3.20;;;;;;;11.33;100.00;100308.03;2039649;29;20200;-60
2022/11/21 01:13:47;;;;;;;5.67;4.00;;;;;;;11.47;100.00;100313.13;2039851;29;20589;-59
2022/11/21 01:14:48;;;;;;;7.30;4.53;;;;;;;11.44;100.00;100316.81;2039831;29;20192;-60
2022/11/21 01:15:48;;;;;;;5.80;3.90;;;;;;;11.32;100.00;100295.38;2039388;29;20440;-60
2022/11/21 01:16:49;;;;;;;4.27;2.80;;;;;;;11.47;100.00;100307.59;2039812;29;20256;-59
2022/11/21 01:17:49;;;;;;;4.23;2.90;;;;;;;11.47;100.00;100307.59;2040052;29;20231;-60
2022/11/21 01:18:50;;;;;;;3.70;2.50;;;;;;;11.49;100.00;100298.81;2038703;29;20196;-60
2022/11/21 01:19:50;;;;;;;3.53;2.30;;;;;;;11.50;100.00;100294.81;2039523;29;20227;-59
2022/11/21 01:20:51;;;;;;;3.27;2.03;;;;;;;11.52;100.00;100295.16;2040000;29;20658;-59
2022/11/21 01:21:51;;;;;;;2.77;1.50;;;;;;;11.46;100.00;100281.06;2039831;29;20238;-59
2022/11/21 01:22:52;;;;;;;2.17;1.50;;;;;;;10.88;100.00;100193.81;2039713;29;20211;-59
2022/11/21 01:23:53;;;;;;;1.93;1.50;;;;;;;11.49;100.00;100277.41;2039662;29;20291;-60
2022/11/21 01:24:53;;;;;;;1.80;1.43;;;;;;;11.49;100.00;100285.72;2039732;29;20207;-59
2022/11/21 01:25:54;;;;;;;1.50;1.20;;;;;;;11.49;100.00;100284.94;2039156;29;20556;-59
2022/11/21 01:26:54;;;;;;;1.43;1.20;;;;;;;11.52;100.00;100273.72;2038954;29;20209;-60
2022/11/21 01:27:54;;;;;;;1.33;1.23;;;;;;;11.55;100.00;100267.28;2039412;29;20225;-59
2022/11/21 01:28:57;;;;;;;2.10;1.40;;;;;;;11.26;100.00;100229.81;2038882;29;20196;-59
2022/11/21 01:29:57;;;;;;;1.93;1.30;;;;;;;11.54;100.00;100270.50;2032942;29;20340;-59
2022/11/21 01:31:06;;;;;;;1.70;1.30;;;;;;;11.46;100.00;100256.09;2039979;29;20499;-59
2022/11/21 01:32:07;;;;;;;1.60;1.30;;;;;;;11.53;100.00;100261.41;2039043;29;20203;-60
2022/11/21 01:33:07;;;;;;;3.40;1.40;;;;;;;11.20;100.00;100207.41;2039728;29;20455;-59
2022/11/21 01:34:07;;;;;;;2.17;1.50;;;;;;;11.55;100.00;100255.41;2040071;29;20200;-60
2022/11/21 01:35:08;;;;;;;2.80;1.50;;;;;;;11.54;100.00;100249.06;2039164;29;20242;-60
2022/11/21 01:36:15;;;;;;;1.90;1.60;;;;;;;11.23;100.00;100187.09;2039666;29;20263;-60
2022/11/21 01:37:16;;;;;;;2.20;1.70;;;;;;;11.60;100.00;100247.31;2039529;29;20665;-60
2022/11/21 01:38:16;;;;;;;2.43;1.73;;;;;;;11.60;100.00;100238.22;2039452;29;20894;-59
2022/11/21 01:39:16;;;;;;;2.10;1.57;;;;;;;11.56;100.00;100229.97;2039060;29;20188;-60
2022/11/21 01:40:17;;;;;;;2.23;1.77;;;;;;;11.68;100.00;100237.53;2039793;29;20211;-60
2022/11/21 01:41:38;;;;;;;1.93;1.63;;;;;;;11.71;100.00;100238.63;2039525;29;20184;-60
2022/11/21 01:42:51;;;;;;;1.93;1.60;;;;;;;11.73;100.00;100245.28;2039615;29;20263;-60
2022/11/21 01:43:51;;;;;;;2.10;1.50;;;;;;;11.50;100.00;100200.47;2039141;29;20534;-60
2022/11/21 01:44:53;;;;;;;2.60;1.80;;;;;;;11.75;100.00;100242.06;2039791;29;20489;-60
2022/11/21 01:45:57;;;;;;;2.00;1.73;;;;;;;11.68;100.00;100234.75;2039006;29;20204;-59
2022/11/21 01:46:58;;;;;;;1.83;1.70;;;;;;;11.74;100.00;100237.72;2039691;29;20984;-60
2022/11/21 01:47:58;;;;;;;2.47;1.60;;;;;;;11.76;100.00;100238.84;2039154;29;20822;-60
2022/11/21 01:49:03;;;;;;;2.33;1.80;;;;;;;11.72;100.00;100238.19;2039322;29;20275;-60
2022/11/21 01:50:04;;;;;;;3.60;1.80;;;;;;;11.68;100.00;100228.44;2038973;29;20286;-60
2022/11/21 01:51:16;;;;;;;2.40;1.90;;;;;;;11.71;100.00;100224.75;2039236;29;20443;-60
2022/11/21 01:52:24;;;;;;;2.63;2.00;;;;;;;11.67;100.00;100230.41;2039683;29;20742;-60
2022/11/21 01:53:25;;;;;;;2.27;2.00;;;;;;;11.24;100.00;100162.94;2039207;29;20443;-60
2022/11/21 01:54:41;;;;;;;2.80;2.30;;;;;;;11.61;100.00;100229.44;2039304;29;20463;-60
2022/11/21 01:55:42;;;;;;;2.57;2.10;;;;;;;11.68;100.00;100228.44;2039099;29;20658;-60
2022/11/21 01:56:48;;;;;;;2.70;2.03;;;;;;;11.73;100.00;100233.41;2039501;29;20468;-60
2022/11/21 01:57:48;;;;;;;2.20;2.00;;;;;;;11.17;100.00;100158.38;2038592;29;20464;-60
2022/11/21 01:58:52;;;;;;;2.47;2.03;;;;;;;11.69;100.00;100236.28;2030456;29;20513;-60
2022/11/21 02:00:20;;;;;;;2.80;2.30;;;;;;;11.71;100.00;100231.09;2038963;29;20605;-60
2022/11/21 02:01:21;;;;;;;2.30;2.10;;;;;;;11.72;100.00;100232.63;2039554;29;20440;-60
2022/11/21 02:02:27;;;;;;;2.57;2.10;;;;;;;11.80;100.00;100247.03;2039470;29;20420;-60
2022/11/21 02:03:33;;;;;;;2.50;2.30;;;;;;;11.81;100.00;100240.25;2039005;29;20757;-60
2022/11/21 02:04:34;;;;;;;2.73;2.20;;;;;;;11.64;100.00;100225.00;2039649;29;20426;-60
2022/11/21 02:05:38;;;;;;;3.60;2.40;;;;;;;11.85;100.00;100244.47;2038909;29;20440;-60
2022/11/21 02:06:38;;;;;;;3.20;2.50;;;;;;;11.91;100.00;100245.44;2039626;29;20550;-60
2022/11/21 02:07:42;;;;;;;2.90;2.27;;;;;;;11.92;100.00;100240.66;2039412;29;20436;-60
2022/11/21 02:08:44;;;;;;;4.40;2.47;;;;;;;11.67;100.00;100212.97;2039162;29;20679;-60
2022/11/21 02:09:50;;;;;;;2.50;2.20;;;;;;;11.95;100.00;100237.00;2039340;29;20450;-60
2022/11/21 02:10:57;;;;;;;2.40;2.20;;;;;;;11.93;100.00;100237.44;2046707;29;20455;-60
2022/11/21 02:12:03;;;;;;;3.30;2.50;;;;;;;11.72;100.00;100221.53;2045586;29;20458;-60
2022/11/21 02:13:03;;;;;;;2.73;2.40;;;;;;;11.84;100.00;100226.25;2038893;29;20440;-59
2022/11/21 02:14:04;;;;;;;3.37;2.57;;;;;;;11.95;100.00;100245.31;2038611;29;21008;-59
2022/11/21 02:15:05;;;;;;;2.90;2.50;;;;;;;11.89;100.00;100242.31;2039176;29;20271;-60
2022/11/21 02:16:06;;;;;;;3.37;2.43;;;;;;;11.49;100.00;100185.84;2039302;29;20196;-60
2022/11/21 02:17:08;;;;;;;3.53;2.60;;;;;;;11.83;100.00;100244.13;2039669;29;20432;-59
2022/11/21 02:18:09;;;;;;;3.00;2.70;;;;;;;11.86;100.00;100248.78;2039230;29;20476;-60
2022/11/21 02:19:19;;;;;;;3.57;2.73;;;;;;;11.86;100.00;100257.13;2038484;29;20440;-60
2022/11/21 02:20:27;;;;;;;5.03;3.33;;;;;;;11.89;100.00;100259.00;2038693;29;20246;-60
2022/11/21 02:21:46;;;;;;;4.23;2.90;;;;;;;11.93;100.00;100256.88;2038878;29;20954;-59
2022/11/21 02:23:09;;;;;;;3.00;2.60;;;;;;;11.98;100.00;100256.28;2039568;29;20447;-60
2022/11/21 02:24:09;;;;;;;4.63;2.80;;;;;;;12.04;100.00;100253.72;2039153;29;20957;-60
2022/11/21 02:25:28;;;;;;;4.43;2.70;;;;;;;12.07;100.00;100269.47;2039161;29;20909;-60
2022/11/21 02:26:29;;;;;;;4.30;2.80;;;;;;;12.11;100.00;100247.91;2039443;29;20188;-60
2022/11/21 02:27:30;;;;;;;4.17;2.60;;;;;;;12.20;100.00;100262.63;2038581;29;20456;-60
2022/11/21 02:28:30;;;;;;;3.73;2.70;;;;;;;12.24;100.00;100257.72;2038643;29;20857;-60
2022/11/21 02:29:31;;;;;;;6.00;2.30;;;;;;;12.25;100.00;100264.84;2038199;29;20319;-60
2022/11/21 02:30:35;;;;;;;2.63;2.23;;;;;;;12.23;100.00;100261.75;2038696;29;20265;-59
2022/11/21 02:31:36;;;;;;;3.80;2.20;;;;;;;12.26;100.00;100265.63;2039125;29;20197;-59
2022/11/21 02:32:45;;;;;;;3.07;1.73;;;;;;;12.06;100.00;100226.28;2039658;29;20470;-60
2022/11/21 02:33:45;;;;;;;2.53;1.50;;;;;;;12.31;100.00;100265.81;2039992;28;20634;-59
2022/11/21 02:34:46;;;;;;;2.77;1.80;;;;;;;12.31;100.00;100267.81;2039500;29;20891;-60
2022/11/21 02:36:00;;;;;;;2.20;1.67;;;;;;;12.35;100.00;100257.34;2038927;29;20203;-59
2022/11/21 02:37:01;;;;;;;2.43;1.63;;;;;;;12.34;100.00;100273.25;2039529;29;20597;-60
2022/11/21 02:38:12;;;;;;;2.90;1.70;;;;;;;12.31;100.00;100254.72;2039192;29;20881;-60
2022/11/21 02:39:22;;;;;;;2.73;1.47;;;;;;;12.25;100.00;100250.19;2038939;29;20611;-59
2022/11/21 02:40:28;;;;;;;2.30;1.30;;;;;;;12.15;100.00;100256.91;2039517;29;20514;-60
2022/11/21 02:41:31;;;;;;;2.03;1.20;;;;;;;11.83;100.00;100235.81;2039206;29;20521;-59
2022/11/21 02:42:48;;;;;;;1.87;1.33;;;;;;;11.86;100.00;100240.47;2039418;29;21013;-60
2022/11/21 02:43:58;;;;;;;1.50;1.13;;;;;;;11.71;100.00;100239.41;2039231;29;20530;-60
2022/11/21 02:45:10;;;;;;;3.17;1.00;;;;;;;11.72;100.00;100235.41;2038650;29;20522;-60
2022/11/21 02:46:10;;;;;;;2.30;1.00;;;;;;;11.61;100.00;100228.66;2039365;29;20448;-60
2022/11/21 02:47:11;;;;;;;1.53;1.00;;;;;;;11.47;100.00;100223.59;2040538;29;20526;-60
2022/11/21 02:48:12;;;;;;;1.73;1.07;;;;;;;11.51;100.00;100227.78;2040811;29;20192;-60
2022/11/21 02:49:15;;;;;;;4.00;1.20;;;;;;;11.28;100.00;100205.94;2040358;29;20204;-59
2022/11/21 02:50:25;;;;;;;1.93;0.93;;;;;;;11.45;100.00;100226.00;2040742;29;20432;-60
2022/11/21 02:51:25;;;;;;;1.73;0.90;;;;;;;11.30;100.00;100213.84;2040676;29;20420;-59
2022/11/21 02:52:26;;;;;;;2.00;0.80;;;;;;;10.92;100.00;100160.44;2040665;29;20515;-59
2022/11/21 02:53:26;;;;;;;1.47;0.90;;;;;;;11.29;100.00;100231.72;2041018;29;20191;-59
2022/11/21 02:54:27;;;;;;;1.60;0.80;;;;;;;11.17;100.00;100235.28;2040673;29;20196;-59
2022/11/21 02:55:27;;;;;;;1.67;0.93;;;;;;;11.09;100.00;100209.78;2040407;29;20220;-59
2022/11/21 02:56:28;;;;;;;1.00;0.90;;;;;;;10.75;100.00;100164.53;2040800;29;20192;-59
2022/11/21 02:57:28;;;;;;;1.67;0.90;;;;;;;11.10;100.00;100230.72;2040679;29;20209;-59
2022/11/21 02:58:29;;;;;;;1.83;0.90;;;;;;;11.03;100.00;100222.66;2041390;29;20199;-60
2022/11/21 02:59:29;;;;;;;2.37;1.10;;;;;;;11.03;100.00;100233.75;2040127;29;20188;-59
2022/11/21 03:00:30;;;;;;;2.77;1.13;;;;;;;11.05;100.00;100236.03;2040940;29;20649;-59
2022/11/21 03:01:30;;;;;;;2.07;1.07;;;;;;;11.09;100.00;100239.50;2040711;29;20263;-60
2022/11/21 03:02:31;;;;;;;1.20;0.80;;;;;;;10.66;100.00;100173.53;2040787;29;20712;-59
2022/11/21 03:03:31;;;;;;;1.80;0.80;;;;;;;11.10;100.00;100239.06;2040115;29;20211;-59
2022/11/21 03:04:31;;;;;;;3.00;0.90;;;;;;;10.91;100.00;100215.09;2040738;29;20208;-59
2022/11/21 03:05:32;;;;;;;1.00;0.80;;;;;;;11.21;100.00;100252.56;2040239;29;20274;-60
2022/11/21 03:06:32;;;;;;;2.17;0.80;;;;;;;11.26;100.00;100254.78;2039966;29;20220;-59
2022/11/21 03:07:33;;;;;;;1.30;0.60;;;;;;;11.30;100.00;100249.91;2040428;29;20636;-59
2022/11/21 03:08:33;;;;;;;1.20;0.60;;;;;;;11.32;100.00;100244.69;2040688;29;20192;-60
2022/11/21 03:09:34;;;;;;;1.67;0.67;;;;;;;11.40;100.00;100251.53;2040368;29;20222;-60
2022/11/21 03:10:35;;;;;;;1.40;0.60;;;;;;;11.46;100.00;100250.53;2040500;29;20188;-60
2022/11/21 03:11:35;;;;;;;1.57;0.60;;;;;;;11.28;100.00;100225.38;2040569;29;20203;-60
2022/11/21 03:12:37;;;;;;;1.00;0.50;;;;;;;11.31;100.00;100234.78;2040230;29;20595;-60
2022/11/21 03:13:37;;;;;;;1.53;0.60;;;;;;;11.41;100.00;100253.09;2040357;29;20800;-60
2022/11/21 03:14:38;;;;;;;1.03;0.30;;;;;;;11.40;100.00;100249.56;2039880;29;20452;-60
2022/11/21 03:15:38;;;;;;;0.83;0.30;;;;;;;11.33;100.00;100246.25;2040144;29;20219;-60
2022/11/21 03:16:39;;;;;;;0.67;0.30;;;;;;;11.31;100.00;100248.66;2040527;29;20191;-60
2022/11/21 03:17:39;;;;;;;1.23;0.40;;;;;;;11.39;100.00;100248.00;2040854;29;20184;-59
2022/11/21 03:18:40;;;;;;;0.80;0.30;;;;;;;11.27;100.00;100242.47;2039551;29;20248;-60
2022/11/21 03:19:40;;;;;;;1.00;0.30;;;;;;;11.28;100.00;100252.34;2039825;29;20207;-59
2022/11/21 03:20:41;;;;;;;1.03;0.40;;;;;;;11.26;100.00;100244.47;2040677;29;20196;-60
2022/11/21 03:21:41;;;;;;;0.90;0.30;;;;;;;11.28;100.00;100246.81;2039725;29;20216;-59
2022/11/21 03:22:41;;;;;;;1.20;0.30;;;;;;;11.28;100.00;100232.94;2039952;29;20721;-60
2022/11/21 03:23:42;;;;;;;1.23;0.50;;;;;;;11.31;100.00;100234.78;2040295;29;20220;-60
2022/11/21 03:24:42;;;;;;;1.07;0.40;;;;;;;11.31;100.00;100234.78;2040407;29;20192;-59
2022/11/21 03:25:43;;;;;;;0.77;0.33;;;;;;;10.90;100.00;100166.44;2040310;29;20200;-60
2022/11/21 03:26:43;;;;;;;0.97;0.40;;;;;;;11.33;100.00;100235.16;2040706;29;20204;-60
2022/11/21 03:27:43;;;;;;;1.80;0.40;;;;;;;10.95;100.00;100195.56;2040389;29;20201;-59
2022/11/21 03:28:44;;;;;;;0.80;0.40;;;;;;;11.44;100.00;100247.44;2040535;29;20212;-59
2022/11/21 03:29:44;;;;;;;0.60;0.40;;;;;;;11.38;100.00;100242.91;2040311;29;20262;-60
2022/11/21 03:30:46;;;;;;;0.60;0.30;;;;;;;11.38;100.00;100240.13;2047618;28;20588;-60
2022/11/21 03:31:46;;;;;;;1.27;0.33;;;;;;;11.12;100.00;100206.09;2047640;29;20366;-59
2022/11/21 03:32:46;;;;;;;0.40;0.20;;;;;;;11.43;100.00;100245.88;2040311;29;20440;-60
2022/11/21 03:33:47;;;;;;;0.70;0.40;;;;;;;11.46;100.00;100241.44;2040585;29;20287;-59
2022/11/21 03:34:47;;;;;;;0.27;0.20;;;;;;;11.46;100.00;100241.44;2040467;29;20221;-60
2022/11/21 03:35:48;;;;;;;0.70;0.30;;;;;;;11.44;100.00;100235.56;2040124;29;20661;-59
2022/11/21 03:36:48;;;;;;;0.20;0.20;;;;;;;11.40;100.00;100234.91;2040384;29;20531;-59
2022/11/21 03:37:49;;;;;;;2.37;0.40;;;;;;;10.94;100.00;100161.53;2040310;29;20192;-60
2022/11/21 03:38:49;;;;;;;0.70;0.40;;;;;;;11.27;100.00;100217.53;2039630;29;20200;-59
2022/11/21 03:39:49;;;;;;;0.60;0.30;;;;;;;11.36;100.00;100234.22;2040153;29;20180;-59
2022/11/21 03:40:50;;;;;;;0.53;0.40;;;;;;;11.27;100.00;100240.47;2040465;29;20275;-60
2022/11/21 03:41:50;;;;;;;1.13;0.50;;;;;;;11.13;100.00;100223.53;2040666;29;20552;-59
2022/11/21 03:42:51;;;;;;;0.63;0.30;;;;;;;11.16;100.00;100236.47;2040481;29;20609;-59
2022/11/21 03:43:51;;;;;;;0.70;0.43;;;;;;;11.16;100.00;100239.25;2040359;29;20302;-60
2022/11/21 03:44:52;;;;;;;2.67;0.50;;;;;;;11.09;100.00;100236.72;2039720;29;20270;-59
2022/11/21 03:45:52;;;;;;;1.90;0.30;;;;;;;11.10;100.00;100239.06;2039377;29;20287;-60
2022/11/21 03:46:52;;;;;;;0.43;0.30;;;;;;;11.03;100.00;100230.97;2040254;29;20200;-59
2022/11/21 03:47:53;;;;;;;0.73;0.40;;;;;;;11.03;100.00;100224.63;2040151;29;20199;-59
2022/11/21 03:48:53;;;;;;;1.73;0.50;;;;;;;11.06;100.00;100221.75;2040220;29;20274;-60
2022/11/21 03:49:54;;;;;;;2.90;0.50;;;;;;;10.81;100.00;100185.72;2040819;28;20192;-60
2022/11/21 03:50:54;;;;;;;0.43;0.30;;;;;;;11.04;100.00;100229.75;2040160;29;20209;-59
2022/11/21 03:51:55;;;;;;;1.00;0.40;;;;;;;10.98;100.00;100222.41;2040576;29;20195;-60
2022/11/21 03:52:55;;;;;;;1.30;0.60;;;;;;;10.90;100.00;100212.75;2040388;29;20229;-59
2022/11/21 03:53:56;;;;;;;0.77;0.40;;;;;;;10.42;100.00;100141.06;2040143;29;20571;-60
2022/11/21 03:54:56;;;;;;;0.63;0.50;;;;;;;10.98;100.00;100217.66;2039331;29;20291;-59
2022/11/21 03:55:57;;;;;;;2.00;0.70;;;;;;;10.92;100.00;100221.44;2039348;29;20203;-59
2022/11/21 03:56:57;;;;;;;0.97;0.40;;;;;;;10.94;100.00;100218.97;2040331;29;20255;-60
2022/11/21 03:57:57;;;;;;;1.00;0.60;;;;;;;10.96;100.00;100228.41;2039608;29;20195;-59
2022/11/21 03:58:58;;;;;;;0.90;0.50;;;;;;;10.96;100.00;100222.09;2039749;29;20275;-59
2022/11/21 03:59:58;;;;;;;1.20;0.60;;;;;;;11.00;100.00;100228.28;2040219;29;20191;-60
2022/11/21 04:00:59;;;;;;;0.90;0.50;;;;;;;11.00;100.00;100239.38;2040309;29;20199;-59
2022/11/21 04:01:59;;;;;;;2.07;0.70;;;;;;;11.01;100.00;100236.16;2040128;29;20233;-60
2022/11/21 04:03:00;;;;;;;2.00;0.60;;;;;;;10.94;100.00;100233.63;2040024;28;20677;-60
2022/11/21 04:04:00;;;;;;;0.63;0.50;;;;;;;10.91;100.00;100226.19;2040043;29;20232;-59
2022/11/21 04:05:01;;;;;;;1.47;0.50;;;;;;;10.85;100.00;100227.19;2039944;29;20202;-62
2022/11/21 04:06:01;;;;;;;0.63;0.50;;;;;;;10.55;100.00;100206.31;2040537;29;20195;-62
2022/11/21 04:07:02;;;;;;;1.37;0.60;;;;;;;10.77;100.00;100229.38;2040499;29;20199;-62
2022/11/21 04:08:02;;;;;;;2.27;0.60;;;;;;;10.71;100.00;100220.06;2040061;29;20204;-62
2022/11/21 04:09:03;;;;;;;0.60;0.50;;;;;;;10.72;100.00;100234.72;2040037;29;20307;-62
2022/11/21 04:10:04;;;;;;;0.83;0.53;;;;;;;10.65;100.00;100229.41;2040132;29;20187;-63
2022/11/21 04:11:05;;;;;;;1.60;0.50;;;;;;;10.15;100.00;100149.00;2040822;29;20280;-62
2022/11/21 04:12:06;;;;;;;1.10;0.50;;;;;;;10.11;100.00;100151.09;2040113;29;20191;-62
2022/11/21 04:13:06;;;;;;;1.70;0.60;;;;;;;10.22;100.00;100163.41;2040286;29;20441;-63
2022/11/21 04:14:07;;;;;;;0.57;0.50;;;;;;;10.68;100.00;100236.81;2040260;29;20190;-62
2022/11/21 04:15:07;;;;;;;1.23;0.60;;;;;;;10.72;100.00;100241.03;2039747;29;20342;-62
2022/11/21 04:16:08;;;;;;;1.07;0.50;;;;;;;10.29;100.00;100171.50;2040148;29;20252;-62
2022/11/21 04:17:08;;;;;;;0.87;0.50;;;;;;;10.68;100.00;100243.16;2040116;29;20193;-62
2022/11/21 04:18:10;;;;;;;2.47;0.50;;;;;;;10.18;100.00;100171.03;2039913;29;20565;-62
2022/11/21 04:19:10;;;;;;;1.70;0.40;;;;;;;10.18;100.00;100161.94;2040279;29;20198;-63
2022/11/21 04:20:11;;;;;;;0.90;0.43;;;;;;;10.52;100.00;100228.59;2039958;29;20432;-62
2022/11/21 04:21:11;;;;;;;0.83;0.40;;;;;;;10.65;100.00;100244.03;2040178;29;20192;-63
2022/11/21 04:22:12;;;;;;;1.57;0.40;;;;;;;10.59;100.00;100251.34;2040272;29;20274;-63
2022/11/21 04:23:12;;;;;;;0.93;0.60;;;;;;;10.40;100.00;100238.44;2039979;29;20551;-62
2022/11/21 04:24:13;;;;;;;1.00;0.40;;;;;;;10.57;100.00;100247.44;2040076;29;20190;-62
2022/11/21 04:25:13;;;;;;;1.77;0.50;;;;;;;10.55;100.00;100247.88;2039706;29;20234;-62
2022/11/21 04:26:14;;;;;;;1.40;0.50;;;;;;;10.57;100.00;100244.69;2039962;29;20352;-62
2022/11/21 04:27:14;;;;;;;4.97;0.60;;;;;;;10.49;100.00;100257.97;2039969;29;20182;-62
2022/11/21 04:28:15;;;;;;;0.40;0.40;;;;;;;10.46;100.00;100247.00;2039983;29;20189;-62
2022/11/21 04:29:15;;;;;;;0.70;0.40;;;;;;;10.48;100.00;100252.84;2039522;29;20551;-63
2022/11/21 04:30:16;;;;;;;1.00;0.50;;;;;;;10.52;100.00;100257.09;2040259;29;20272;-62
2022/11/21 04:31:16;;;;;;;1.77;0.50;;;;;;;10.41;100.00;100253.84;2040380;29;20218;-61
2022/11/21 04:32:16;;;;;;;0.40;0.40;;;;;;;9.98;100.00;100180.69;2039956;29;20617;-63
2022/11/21 04:33:18;;;;;;;1.73;0.50;;;;;;;10.04;100.00;100190.06;2040049;29;20194;-62
2022/11/21 04:34:18;;;;;;;3.03;0.70;;;;;;;10.37;100.00;100250.41;2039897;29;20199;-62
2022/11/21 04:35:19;;;;;;;1.70;0.50;;;;;;;10.41;100.00;100253.06;2039606;29;20461;-62
2022/11/21 04:36:20;;;;;;;1.50;0.50;;;;;;;10.42;100.00;100258.19;2040064;29;20429;-61
2022/11/21 04:37:20;;;;;;;0.73;0.50;;;;;;;10.37;100.00;100252.41;2039977;29;20523;-63
2022/11/21 04:38:21;;;;;;;0.50;0.40;;;;;;;10.32;100.00;100267.56;2040197;29;20187;-62
2022/11/21 04:39:21;;;;;;;1.70;0.80;;;;;;;10.30;100.00;100266.47;2039402;29;20703;-63
2022/11/21 04:40:21;;;;;;;0.87;0.50;;;;;;;10.28;100.00;100264.13;2039774;29;20194;-62
2022/11/21 04:41:22;;;;;;;0.70;0.60;;;;;;;10.29;100.00;100262.91;2039990;29;20276;-62
2022/11/21 04:42:22;;;;;;;0.87;0.50;;;;;;;9.42;100.00;100135.22;2039958;29;20201;-62
2022/11/21 04:43:23;;;;;;;1.43;0.50;;;;;;;9.77;100.00;100195.13;2039783;29;20232;-62
2022/11/21 04:44:24;;;;;;;1.00;0.60;;;;;;;10.41;100.00;100264.91;2039857;29;20665;-62